KSBS

Steamboat Springs / Bob Adams Field Airport

Steamboat Springs, Colorado, USA
METAR KSBS 171755Z AUTO 18004KT 10SM CLR 12/M04 A3035 RMK AO1 T01211041
Observed Flight Rules
Oct-17 @ 17:55 UTC (25 minutes ago) Visual Flight Rules
Wind Visibility Clouds
180° at 4 knots 10 miles
  • Clear skies
Temperatures Readings
Current 12°C / 54°F
Dewpoint -4°C / 25°F
Humidity 33%
Altimeter 30.35" Hg
Pressure 1028 hPa
Elevation 2096
METAR KSBS 171755Z AUTO 18004KT 10SM CLR 12/M04 A3035 RMK AO1 T01211041
Observed Flight Rules
Oct-17 @ 17:55 UTC
(25 minutes ago)
VFR
Wind Visibility
180° at 4 knots 10 miles
Clouds
  • Clear skies
Temperature Dewpoint
12°C / 54°F -4°C / 25°F
Humidity Altimeter Pressure
33% 30.35" Hg 1028 hPa